createdAt,value
2023-04-15T00:06:41.963Z,65.68
2023-04-15T00:36:44.946Z,68.19
2023-04-15T01:06:47.858Z,67.88
2023-04-15T01:36:50.786Z,68.47
2023-04-15T02:06:53.881Z,70.23
2023-04-15T02:36:56.765Z,71.29
2023-04-15T03:06:59.682Z,72.63
2023-04-15T03:37:02.653Z,73.68
2023-04-15T04:07:05.594Z,75.09
2023-04-15T04:37:08.535Z,77.04
2023-04-15T05:07:11.669Z,77.50
2023-04-15T05:37:14.661Z,76.83
2023-04-15T06:07:17.577Z,78.25
2023-04-15T06:37:20.850Z,75.50
2023-04-15T07:07:24.046Z,74.34
2023-04-15T07:37:27.014Z,67.17
2023-04-15T08:07:30.045Z,51.65
2023-04-15T08:37:32.991Z,42.16
2023-04-15T09:07:35.976Z,35.06
2023-04-15T09:37:38.934Z,34.40
2023-04-15T10:07:42.134Z,33.81
2023-04-15T10:37:45.193Z,36.78
2023-04-15T11:07:53.891Z,44.20
2023-04-15T11:37:56.887Z,44.87
2023-04-15T12:08:00.350Z,40.89
2023-04-15T12:38:03.347Z,50.31
2023-04-15T13:08:06.591Z,58.08
2023-04-15T13:38:09.659Z,68.29
2023-04-15T14:08:14.144Z,70.16
2023-04-15T14:38:17.148Z,77.07
2023-04-15T15:08:20.101Z,79.34
2023-04-15T15:38:23.052Z,82.19
2023-04-15T16:08:25.919Z,86.56
2023-04-15T16:38:28.847Z,89.56
2023-04-15T17:08:31.816Z,90.72
2023-04-15T17:38:35.244Z,91.44
2023-04-15T18:08:38.237Z,92.62
2023-04-15T18:38:41.423Z,91.96
2023-04-15T19:08:44.477Z,91.33
2023-04-15T19:38:47.470Z,90.62
2023-04-15T20:08:50.698Z,92.35
2023-04-15T20:38:54.107Z,92.92
2023-04-15T21:08:57.096Z,92.43
2023-04-15T21:39:00.043Z,93.59
2023-04-15T22:09:03.597Z,96.58
2023-04-15T22:39:06.874Z,97.30
2023-04-15T23:09:10.252Z,97.00
2023-04-15T23:39:13.229Z,98.95
